createdAt,value
2023-01-12T00:00:43.562Z,0.57
2023-01-12T00:01:46.880Z,0.83
2023-01-12T00:02:50.267Z,1.00
2023-01-12T00:03:53.486Z,1.00
2023-01-12T00:04:56.835Z,1.00
2023-01-12T00:06:00.157Z,1.00
2023-01-12T00:07:03.300Z,0.14
2023-01-12T00:08:06.589Z,0.29
2023-01-12T00:09:09.879Z,0.83
2023-01-12T00:10:13.261Z,1.29
2023-01-12T00:11:16.557Z,1.00
2023-01-12T00:13:36.109Z,2.00
2023-01-12T00:14:39.292Z,0.43
2023-01-12T00:15:42.829Z,0.71
2023-01-12T00:16:46.084Z,0.14
2023-01-12T00:17:49.460Z,0.57
2023-01-12T00:18:52.859Z,0.57
2023-01-12T00:19:56.060Z,0.43
2023-01-12T00:20:59.524Z,1.00
2023-01-12T00:22:02.905Z,0.57
2023-01-12T00:23:06.294Z,0.00
2023-01-12T00:24:09.588Z,0.43
2023-01-12T00:25:12.856Z,0.86
2023-01-12T00:26:16.165Z,0.57
2023-01-12T00:27:19.373Z,0.00
2023-01-12T00:28:22.513Z,0.00
2023-01-12T00:29:25.599Z,0.00
2023-01-12T00:30:28.876Z,0.43
2023-01-12T00:31:32.102Z,0.71
2023-01-12T00:32:35.218Z,0.14
2023-01-12T00:33:38.216Z,0.00
2023-01-12T00:34:41.505Z,0.00
2023-01-12T00:35:44.788Z,0.43
2023-01-12T00:36:48.693Z,0.29
2023-01-12T00:37:51.669Z,0.43
2023-01-12T00:38:55.665Z,1.00
2023-01-12T00:40:02.595Z,0.13
2023-01-12T00:41:03.055Z,0.00
2023-01-12T00:42:06.126Z,0.00
2023-01-12T00:43:09.203Z,0.00
2023-01-12T00:44:12.707Z,0.00
2023-01-12T00:45:15.844Z,0.29
2023-01-12T00:46:19.511Z,0.33
2023-01-12T00:47:22.755Z,0.57
2023-01-12T00:48:25.720Z,0.00
2023-01-12T00:49:29.208Z,0.00
2023-01-12T00:50:32.277Z,0.43
2023-01-12T00:51:36.090Z,0.67
2023-01-12T00:52:39.074Z,0.00
2023-01-12T00:53:42.376Z,0.00
2023-01-12T00:54:45.856Z,0.00
2023-01-12T00:55:49.523Z,0.00
2023-01-12T00:56:52.848Z,0.25
2023-01-12T00:57:56.934Z,0.43
2023-01-12T00:59:00.217Z,0.75
2023-01-12T01:00:03.862Z,0.29
2023-01-12T01:01:07.187Z,0.37
2023-01-12T01:02:10.476Z,0.00
2023-01-12T01:03:13.852Z,0.71
2023-01-12T01:04:17.245Z,0.57
2023-01-12T01:05:21.159Z,0.43
2023-01-12T01:06:24.529Z,0.57
2023-01-12T01:07:28.315Z,0.00
2023-01-12T01:08:31.612Z,0.43
2023-01-12T01:09:34.914Z,0.57
2023-01-12T01:10:38.184Z,0.00
2023-01-12T01:11:41.359Z,0.33
2023-01-12T01:12:44.655Z,0.57
2023-01-12T01:13:48.240Z,0.71
2023-01-12T01:14:51.424Z,0.57
2023-01-12T01:15:55.173Z,0.43
2023-01-12T01:16:58.606Z,1.00
2023-01-12T01:18:02.394Z,0.00
2023-01-12T01:19:05.589Z,0.75
2023-01-12T01:20:08.782Z,0.71
2023-01-12T01:21:12.054Z,0.43
2023-01-12T01:22:15.239Z,0.00
2023-01-12T01:23:18.311Z,0.00
2023-01-12T01:24:21.585Z,0.00
2023-01-12T01:25:25.996Z,0.00
2023-01-12T01:26:29.284Z,0.00
2023-01-12T01:27:32.477Z,0.00
2023-01-12T01:28:35.873Z,0.00
2023-01-12T01:29:38.935Z,0.00
2023-01-12T01:30:41.930Z,0.00
2023-01-12T01:31:45.810Z,0.33
2023-01-12T01:32:49.103Z,0.14
2023-01-12T01:33:52.272Z,0.17
2023-01-12T01:34:55.759Z,0.00
2023-01-12T01:35:59.382Z,0.00
2023-01-12T01:37:02.636Z,0.00
2023-01-12T01:38:06.024Z,0.00
2023-01-12T01:39:09.421Z,0.00
2023-01-12T01:40:13.009Z,0.00
2023-01-12T01:41:16.285Z,0.00
2023-01-12T01:42:19.775Z,0.00
2023-01-12T01:43:23.065Z,0.00
2023-01-12T01:44:26.551Z,0.00
2023-01-12T01:45:30.191Z,0.29
2023-01-12T01:46:33.309Z,0.71
2023-01-12T01:47:36.709Z,0.86
2023-01-12T01:48:40.293Z,0.57
2023-01-12T01:49:43.990Z,0.57
2023-01-12T01:50:47.704Z,0.00
2023-01-12T01:51:50.777Z,0.57
2023-01-12T01:52:53.955Z,0.86
2023-01-12T01:53:57.496Z,0.86
2023-01-12T01:55:00.536Z,0.14
2023-01-12T01:56:03.617Z,0.33
2023-01-12T01:57:06.799Z,0.83
2023-01-12T01:58:09.870Z,0.29
2023-01-12T01:59:13.068Z,1.00
2023-01-12T02:00:16.736Z,0.43
2023-01-12T02:01:20.591Z,0.13
2023-01-12T02:02:23.695Z,0.50
2023-01-12T02:03:27.200Z,1.00
2023-01-12T02:04:30.285Z,1.00
2023-01-12T02:05:33.370Z,0.57
2023-01-12T02:06:36.765Z,1.00
2023-01-12T02:07:40.452Z,0.43
2023-01-12T02:08:44.159Z,1.00
2023-01-12T02:09:47.310Z,1.00
2023-01-12T02:10:51.137Z,0.50
2023-01-12T02:11:55.010Z,0.43
2023-01-12T02:12:59.107Z,1.00
2023-01-12T02:14:03.109Z,0.75
2023-01-12T02:15:06.722Z,0.71
2023-01-12T02:16:10.006Z,0.57
2023-01-12T02:17:13.283Z,0.43
2023-01-12T02:18:16.554Z,0.43
2023-01-12T02:19:19.753Z,0.43
2023-01-12T02:20:22.930Z,0.57
2023-01-12T02:21:26.104Z,0.00
2023-01-12T02:22:29.396Z,0.33
2023-01-12T02:23:32.696Z,0.50
2023-01-12T02:24:35.970Z,0.57
2023-01-12T02:25:39.243Z,0.57
2023-01-12T02:26:42.533Z,0.86
2023-01-12T02:27:45.723Z,1.00
2023-01-12T02:28:49.025Z,0.57
2023-01-12T02:29:51.983Z,0.00
2023-01-12T02:30:54.975Z,0.67
2023-01-12T02:31:58.527Z,0.29
2023-01-12T02:33:01.824Z,1.00
2023-01-12T02:34:05.409Z,0.57
2023-01-12T02:35:08.712Z,0.00
2023-01-12T02:36:11.989Z,0.14
2023-01-12T02:37:15.748Z,0.29
2023-01-12T02:38:19.783Z,0.86
2023-01-12T02:39:23.165Z,0.29
2023-01-12T02:40:26.827Z,1.00
2023-01-12T02:41:30.557Z,1.00
2023-01-12T02:42:34.130Z,0.57
2023-01-12T02:43:37.448Z,0.50
2023-01-12T02:44:41.111Z,0.00
2023-01-12T02:45:44.416Z,0.00
2023-01-12T02:46:47.829Z,0.00
2023-01-12T02:47:51.483Z,0.00
2023-01-12T02:48:54.975Z,0.13
2023-01-12T02:49:58.578Z,0.71
2023-01-12T02:51:02.140Z,1.00
2023-01-12T02:52:05.444Z,1.00
2023-01-12T02:53:08.523Z,1.00
2023-01-12T02:54:11.705Z,1.33
2023-01-12T02:55:14.894Z,1.00
2023-01-12T02:56:17.936Z,1.00
2023-01-12T02:57:21.143Z,1.00
2023-01-12T02:58:24.262Z,0.00
2023-01-12T02:59:27.428Z,0.33
2023-01-12T03:00:30.517Z,1.00
2023-01-12T03:01:33.748Z,1.00
2023-01-12T03:02:37.068Z,1.00
2023-01-12T03:03:40.157Z,1.00
2023-01-12T03:04:43.226Z,0.14
2023-01-12T03:05:46.387Z,0.29
2023-01-12T03:06:49.644Z,0.57
2023-01-12T03:07:52.877Z,0.00
2023-01-12T03:08:55.954Z,0.43
2023-01-12T03:09:59.037Z,1.00
2023-01-12T03:11:02.085Z,1.00
2023-01-12T03:12:05.099Z,1.00
2023-01-12T03:13:08.166Z,0.43
2023-01-12T03:14:11.369Z,0.00
2023-01-12T03:15:13.973Z,0.00
2023-01-12T03:16:16.783Z,0.33
2023-01-12T03:17:19.483Z,0.67
2023-01-12T03:18:22.184Z,0.00
2023-01-12T03:19:24.779Z,0.17
2023-01-12T03:20:27.652Z,0.00
2023-01-12T03:21:30.614Z,0.00
2023-01-12T03:22:34.939Z,0.43
2023-01-12T03:23:37.585Z,0.62
2023-01-12T03:24:40.438Z,0.67
2023-01-12T03:25:43.327Z,0.00
2023-01-12T03:26:46.265Z,0.00
2023-01-12T03:27:49.262Z,0.29
2023-01-12T03:28:52.210Z,0.00
2023-01-12T03:29:55.009Z,0.33
2023-01-12T03:30:58.709Z,0.83
2023-01-12T03:32:01.336Z,0.43
2023-01-12T03:33:04.129Z,0.67
2023-01-12T03:34:06.798Z,0.57
2023-01-12T03:35:09.992Z,0.33
2023-01-12T03:36:12.816Z,0.14
2023-01-12T03:37:15.737Z,0.00
2023-01-12T03:38:18.617Z,0.33
2023-01-12T03:39:21.783Z,0.17
2023-01-12T03:40:24.667Z,0.29
2023-01-12T03:41:27.271Z,0.17
2023-01-12T03:42:29.882Z,0.00
2023-01-12T03:43:32.732Z,0.33
2023-01-12T03:44:35.659Z,0.50
2023-01-12T03:45:38.601Z,0.50
2023-01-12T03:46:41.560Z,0.57
2023-01-12T03:47:44.428Z,0.71
2023-01-12T03:48:47.307Z,1.00
2023-01-12T03:49:50.160Z,0.67
2023-01-12T03:50:53.074Z,0.00
2023-01-12T03:51:55.955Z,0.14
2023-01-12T03:52:58.874Z,0.33
2023-01-12T03:54:01.787Z,0.67
2023-01-12T03:55:04.474Z,0.00
2023-01-12T03:56:07.187Z,0.00
2023-01-12T03:57:10.322Z,0.00
2023-01-12T03:58:13.203Z,0.43
2023-01-12T03:59:16.115Z,1.00
2023-01-12T04:00:18.982Z,1.00
2023-01-12T04:01:23.026Z,0.33
2023-01-12T04:02:25.962Z,0.00
2023-01-12T04:03:28.566Z,0.00
2023-01-12T04:04:31.195Z,0.00
2023-01-12T04:05:34.097Z,0.00
2023-01-12T04:06:36.924Z,0.00
2023-01-12T04:07:39.765Z,0.33
2023-01-12T04:08:42.590Z,0.57
2023-01-12T04:09:45.394Z,0.00
2023-01-12T04:10:48.051Z,0.00
2023-01-12T04:11:51.010Z,0.00
2023-01-12T04:12:53.906Z,0.33
2023-01-12T04:13:56.887Z,0.67
2023-01-12T04:14:59.781Z,0.43
2023-01-12T04:16:02.623Z,1.00
2023-01-12T04:17:05.495Z,1.00
2023-01-12T04:18:08.296Z,1.50
2023-01-12T04:19:11.338Z,1.57
2023-01-12T04:20:14.404Z,1.00
2023-01-12T04:21:17.288Z,1.00
2023-01-12T04:22:20.200Z,0.67
2023-01-12T04:23:23.156Z,1.43
2023-01-12T04:24:26.042Z,1.00
2023-01-12T04:25:28.918Z,1.00
2023-01-12T04:26:31.625Z,0.33
2023-01-12T04:27:34.249Z,1.00
2023-01-12T04:28:36.898Z,1.00
2023-01-12T04:29:39.565Z,0.83
2023-01-12T04:30:42.227Z,0.00
2023-01-12T04:31:44.977Z,1.00
2023-01-12T04:32:47.673Z,1.29
2023-01-12T04:33:50.468Z,1.33
2023-01-12T04:34:53.466Z,1.43
2023-01-12T04:35:56.393Z,1.00
2023-01-12T04:36:59.527Z,0.67
2023-01-12T04:38:03.413Z,1.00
2023-01-12T04:39:06.111Z,1.00
2023-01-12T04:40:08.792Z,0.57
2023-01-12T04:41:11.350Z,0.17
2023-01-12T04:42:14.370Z,0.00
2023-01-12T04:43:17.270Z,1.00
2023-01-12T04:44:20.017Z,1.43
2023-01-12T04:45:22.823Z,1.67
2023-01-12T04:46:25.712Z,1.33
2023-01-12T04:47:28.746Z,1.43
2023-01-12T04:48:31.377Z,3.29
2023-01-12T04:49:34.443Z,4.00
2023-01-12T04:50:37.350Z,2.00
2023-01-12T04:51:40.272Z,1.57
2023-01-12T04:52:43.358Z,1.83
2023-01-12T04:53:46.353Z,2.00
2023-01-12T04:54:49.190Z,1.67
2023-01-12T04:55:52.105Z,1.14
2023-01-12T04:56:54.887Z,2.00
2023-01-12T04:57:57.750Z,2.17
2023-01-12T04:59:00.494Z,2.43
2023-01-12T05:00:03.147Z,1.83
2023-01-12T05:01:05.808Z,4.33
2023-01-12T05:02:08.624Z,13.86
2023-01-12T05:03:11.241Z,19.33
2023-01-12T05:04:13.887Z,11.86
2023-01-12T05:05:16.517Z,6.00
2023-01-12T05:06:19.149Z,4.00
2023-01-12T05:07:21.821Z,5.50
2023-01-12T05:08:24.425Z,6.83
2023-01-12T05:09:27.032Z,5.67
2023-01-12T05:10:29.574Z,4.67
2023-01-12T05:11:32.234Z,5.43
2023-01-12T05:12:34.987Z,4.00
2023-01-12T05:13:37.661Z,1.67
2023-01-12T05:14:40.240Z,2.33
2023-01-12T05:15:42.883Z,2.67
2023-01-12T05:16:45.628Z,2.17
2023-01-12T05:17:48.421Z,2.83
2023-01-12T05:18:51.117Z,4.00
2023-01-12T05:19:53.675Z,4.33
2023-01-12T05:20:56.353Z,2.67
2023-01-12T05:21:58.955Z,2.33
2023-01-12T05:23:01.723Z,2.17
2023-01-12T05:24:04.386Z,1.17
2023-01-12T05:25:07.056Z,2.17
2023-01-12T05:26:09.661Z,3.67
2023-01-12T05:27:12.193Z,1.67
2023-01-12T05:28:14.827Z,1.00
2023-01-12T05:29:17.554Z,1.00
2023-01-12T05:30:20.274Z,1.00
2023-01-12T05:31:22.964Z,0.50
2023-01-12T05:32:25.553Z,0.33
2023-01-12T05:33:28.175Z,0.43
2023-01-12T05:34:30.848Z,1.00
2023-01-12T05:35:33.521Z,1.00
2023-01-12T05:36:36.220Z,0.33
2023-01-12T05:37:38.965Z,1.33
2023-01-12T05:38:41.618Z,1.67
2023-01-12T05:39:44.304Z,0.33
2023-01-12T05:40:46.945Z,0.71
2023-01-12T05:41:49.664Z,0.17
2023-01-12T05:42:52.343Z,0.29
2023-01-12T05:43:55.041Z,0.33
2023-01-12T05:44:57.738Z,0.50
2023-01-12T05:46:00.489Z,0.00
2023-01-12T05:47:03.161Z,0.67
2023-01-12T05:48:05.948Z,0.67
2023-01-12T05:49:08.607Z,0.67
2023-01-12T05:50:11.317Z,0.67
2023-01-12T05:51:14.077Z,0.17
2023-01-12T05:52:16.786Z,0.00
2023-01-12T05:53:19.393Z,0.33
2023-01-12T05:54:22.064Z,0.00
2023-01-12T05:55:24.753Z,0.83
2023-01-12T05:56:27.424Z,0.57
2023-01-12T05:57:30.050Z,1.00
2023-01-12T05:58:32.782Z,1.00
2023-01-12T05:59:35.376Z,0.67
2023-01-12T06:00:38.083Z,0.17
2023-01-12T06:01:41.179Z,0.86
2023-01-12T06:02:44.082Z,0.57
2023-01-12T06:03:47.015Z,1.00
2023-01-12T06:04:49.973Z,1.00
2023-01-12T06:05:53.033Z,0.57
2023-01-12T06:06:55.897Z,0.00
2023-01-12T06:07:58.671Z,0.00
2023-01-12T06:09:01.314Z,0.43
2023-01-12T06:10:03.976Z,0.67
2023-01-12T06:11:06.855Z,1.00
2023-01-12T06:12:09.512Z,0.83
2023-01-12T06:13:12.168Z,0.43
2023-01-12T06:14:14.901Z,1.00
2023-01-12T06:15:17.850Z,0.67
2023-01-12T06:16:20.879Z,0.33
2023-01-12T06:17:23.975Z,1.43
2023-01-12T06:18:26.831Z,1.00
2023-01-12T06:19:29.833Z,1.29
2023-01-12T06:20:32.756Z,1.17
2023-01-12T06:21:35.642Z,1.00
2023-01-12T06:22:38.532Z,2.00
2023-01-12T06:23:41.137Z,2.33
2023-01-12T06:24:44.041Z,3.00
2023-01-12T06:25:46.929Z,1.50
2023-01-12T06:26:49.917Z,1.00
2023-01-12T06:27:52.795Z,1.71
2023-01-12T06:28:55.581Z,2.14
2023-01-12T06:29:58.509Z,1.00
2023-01-12T06:31:01.537Z,0.71
2023-01-12T06:33:20.530Z,0.88
2023-01-12T06:34:23.446Z,0.50
2023-01-12T06:36:33.523Z,0.37
2023-01-12T06:40:08.332Z,0.13
2023-01-12T06:41:11.038Z,0.17
2023-01-12T06:42:13.717Z,0.00
2023-01-12T06:44:32.680Z,0.00
2023-01-12T06:45:35.689Z,0.00
2023-01-12T06:46:38.521Z,0.00
2023-01-12T06:47:41.170Z,0.00
2023-01-12T06:48:44.072Z,0.00
2023-01-12T06:49:46.973Z,0.00
2023-01-12T06:50:49.853Z,0.00
2023-01-12T06:51:52.716Z,0.00
2023-01-12T06:54:11.231Z,0.00
2023-01-12T06:55:14.120Z,0.00
2023-01-12T06:56:17.038Z,0.00
2023-01-12T06:57:19.901Z,0.00
2023-01-12T07:00:46.439Z,0.00
2023-01-12T07:01:49.363Z,0.00
2023-01-12T07:02:52.256Z,0.00
2023-01-12T07:03:55.051Z,0.00
2023-01-12T07:04:57.902Z,0.00
2023-01-12T07:06:00.700Z,0.00
2023-01-12T07:07:03.307Z,0.00
2023-01-12T07:08:05.994Z,0.00
2023-01-12T07:10:24.608Z,0.00
2023-01-12T07:11:27.454Z,0.00
2023-01-12T07:14:54.066Z,0.00
2023-01-12T07:15:57.070Z,0.00
2023-01-12T07:17:00.009Z,0.00
2023-01-12T07:18:02.635Z,0.00
2023-01-12T07:19:05.523Z,0.00
2023-01-12T07:22:31.707Z,0.00
2023-01-12T07:24:50.223Z,0.00
2023-01-12T07:25:52.814Z,0.00
2023-01-12T07:28:06.355Z,0.00
2023-01-12T07:29:09.122Z,0.00
2023-01-12T07:30:12.036Z,0.00
2023-01-12T07:32:22.200Z,0.00
2023-01-12T07:34:38.152Z,0.00
2023-01-12T07:35:40.942Z,0.00
2023-01-12T07:36:43.793Z,0.00
2023-01-12T07:37:46.415Z,0.00
2023-01-12T07:40:07.843Z,0.00
2023-01-12T07:41:10.636Z,0.00
2023-01-12T07:42:13.552Z,0.00
2023-01-12T07:43:16.416Z,0.00
2023-01-12T07:44:19.221Z,0.00
2023-01-12T07:45:22.043Z,0.00
2023-01-12T07:46:25.057Z,0.00
2023-01-12T07:47:27.947Z,0.00
2023-01-12T07:48:30.993Z,0.00
2023-01-12T07:49:33.790Z,0.00
2023-01-12T07:50:36.652Z,0.00
2023-01-12T07:51:39.409Z,0.00
2023-01-12T07:52:42.215Z,0.00
2023-01-12T07:53:44.939Z,0.00
2023-01-12T07:54:47.875Z,0.00
2023-01-12T07:55:50.730Z,0.00
2023-01-12T07:56:53.671Z,0.00
2023-01-12T07:57:56.501Z,0.00
2023-01-12T07:58:59.324Z,0.00
2023-01-12T08:00:02.302Z,0.00
2023-01-12T08:01:05.246Z,0.00
2023-01-12T08:02:08.048Z,0.00
2023-01-12T08:03:10.620Z,0.00
2023-01-12T08:04:13.282Z,0.00
2023-01-12T08:05:15.950Z,0.00
2023-01-12T08:06:18.519Z,0.00
2023-01-12T08:07:21.134Z,0.00
2023-01-12T08:08:23.741Z,0.00
2023-01-12T08:09:26.334Z,0.00
2023-01-12T08:10:28.864Z,0.00
2023-01-12T08:11:31.606Z,0.00
2023-01-12T08:12:34.221Z,0.00
2023-01-12T08:13:36.766Z,0.00
2023-01-12T08:14:39.353Z,0.00
2023-01-12T08:15:42.021Z,0.00
2023-01-12T08:16:44.682Z,0.00
2023-01-12T08:17:47.253Z,0.00
2023-01-12T08:18:50.232Z,0.00
2023-01-12T08:19:52.965Z,0.00
2023-01-12T08:20:55.541Z,0.00
2023-01-12T08:21:58.210Z,0.00
2023-01-12T08:23:00.910Z,0.00
2023-01-12T08:24:03.786Z,0.00
2023-01-12T08:25:06.626Z,0.00
2023-01-12T08:26:09.311Z,0.00
2023-01-12T08:27:11.897Z,0.00
2023-01-12T08:28:14.498Z,0.00
2023-01-12T08:29:17.134Z,0.00
2023-01-12T08:30:19.821Z,0.00
2023-01-12T08:31:22.398Z,0.00
2023-01-12T08:32:25.000Z,0.00
2023-01-12T08:33:27.629Z,0.00
2023-01-12T08:34:30.201Z,0.00
2023-01-12T08:35:32.758Z,0.00
2023-01-12T08:36:35.389Z,0.00
2023-01-12T08:37:37.944Z,0.00
2023-01-12T08:38:40.677Z,0.00
2023-01-12T08:39:43.232Z,0.00
2023-01-12T08:40:45.877Z,0.00
2023-01-12T08:41:48.659Z,0.00
2023-01-12T08:42:51.292Z,0.00
2023-01-12T08:43:53.981Z,0.00
2023-01-12T08:44:56.659Z,0.00
2023-01-12T08:45:59.336Z,0.00
2023-01-12T08:47:02.083Z,0.00
2023-01-12T08:48:04.716Z,0.00
2023-01-12T08:49:07.331Z,0.00
2023-01-12T08:50:11.137Z,0.00
2023-01-12T08:51:13.785Z,0.00
2023-01-12T08:52:16.502Z,0.00
2023-01-12T08:53:19.336Z,0.00
2023-01-12T08:54:22.016Z,0.00
2023-01-12T08:55:24.594Z,0.00
2023-01-12T08:56:27.389Z,0.00
2023-01-12T08:57:30.136Z,0.00
2023-01-12T08:58:32.794Z,0.00
2023-01-12T08:59:35.419Z,0.00
2023-01-12T09:00:38.089Z,0.00
2023-01-12T09:01:41.215Z,0.00
2023-01-12T09:02:43.943Z,0.00
2023-01-12T09:03:49.880Z,0.00
2023-01-12T09:04:52.892Z,0.00
2023-01-12T09:05:55.825Z,0.00
2023-01-12T09:07:00.097Z,0.00
2023-01-12T09:08:02.917Z,0.00
2023-01-12T09:09:05.783Z,0.00
2023-01-12T09:10:09.131Z,0.00
2023-01-12T09:11:12.035Z,0.00
2023-01-12T09:12:14.665Z,0.00
2023-01-12T09:13:17.989Z,0.00
2023-01-12T09:14:20.872Z,0.43
2023-01-12T09:15:23.429Z,0.57
2023-01-12T09:16:26.110Z,0.00
2023-01-12T09:17:28.703Z,0.00
2023-01-12T09:18:31.596Z,0.00
2023-01-12T09:19:34.477Z,0.00
2023-01-12T09:20:37.413Z,0.00
2023-01-12T09:21:40.078Z,0.00
2023-01-12T09:22:42.653Z,0.00
2023-01-12T09:23:45.261Z,0.00
2023-01-12T09:24:48.202Z,0.00
2023-01-12T09:25:50.937Z,0.00
2023-01-12T09:26:53.793Z,0.00
2023-01-12T09:27:56.605Z,0.00
2023-01-12T09:28:59.419Z,0.00
2023-01-12T09:30:02.288Z,0.00
2023-01-12T09:31:05.228Z,0.00
2023-01-12T09:32:07.946Z,0.00
2023-01-12T09:33:11.062Z,0.00
2023-01-12T09:34:13.907Z,0.00
2023-01-12T09:35:16.728Z,0.00
2023-01-12T09:36:19.714Z,0.00
2023-01-12T09:37:22.702Z,0.00
2023-01-12T09:38:25.621Z,0.00
2023-01-12T09:39:28.679Z,0.00
2023-01-12T09:40:31.519Z,0.00
2023-01-12T09:41:34.120Z,0.00
2023-01-12T09:42:37.181Z,0.00
2023-01-12T09:43:39.985Z,0.00
2023-01-12T09:44:42.740Z,0.00
2023-01-12T09:45:45.915Z,0.00
2023-01-12T09:46:48.653Z,0.00
2023-01-12T09:47:53.567Z,0.00
2023-01-12T09:48:55.463Z,0.00
2023-01-12T09:50:08.066Z,0.00
2023-01-12T09:51:02.911Z,0.00
2023-01-12T09:52:06.548Z,0.00
2023-01-12T09:53:09.342Z,0.00
2023-01-12T09:54:12.311Z,0.00
2023-01-12T09:55:15.132Z,0.00
2023-01-12T09:56:18.044Z,0.00
2023-01-12T09:57:28.739Z,0.00
2023-01-12T09:58:24.721Z,0.00
2023-01-12T09:59:27.620Z,0.00
2023-01-12T10:00:30.502Z,0.00
2023-01-12T10:01:34.398Z,0.00
2023-01-12T10:02:37.245Z,0.00
2023-01-12T10:03:40.129Z,0.00
2023-01-12T10:04:43.020Z,0.00
2023-01-12T10:05:45.651Z,0.00
2023-01-12T10:06:48.516Z,0.00
2023-01-12T10:07:51.336Z,0.00
2023-01-12T10:08:54.206Z,0.00
2023-01-12T10:09:56.806Z,0.00
2023-01-12T10:10:59.440Z,0.00
2023-01-12T10:12:02.293Z,0.00
2023-01-12T10:13:05.179Z,0.00
2023-01-12T10:14:08.151Z,0.00
2023-01-12T10:15:10.792Z,0.00
2023-01-12T10:16:13.804Z,0.00
2023-01-12T10:17:16.572Z,0.00
2023-01-12T10:18:19.513Z,0.00
2023-01-12T10:19:22.447Z,0.00
2023-01-12T10:20:25.592Z,0.00
2023-01-12T10:21:28.516Z,0.00
2023-01-12T10:22:31.345Z,0.00
2023-01-12T10:23:34.260Z,0.00
2023-01-12T10:24:37.219Z,0.00
2023-01-12T10:25:39.842Z,0.00
2023-01-12T10:26:42.472Z,0.00
2023-01-12T10:27:45.440Z,0.00
2023-01-12T10:28:48.393Z,0.00
2023-01-12T10:29:51.243Z,0.00
2023-01-12T10:30:56.080Z,0.00
2023-01-12T10:31:57.905Z,0.00
2023-01-12T10:33:00.614Z,0.00
2023-01-12T10:34:03.460Z,0.00
2023-01-12T10:35:06.286Z,0.00
2023-01-12T10:36:09.036Z,0.00
2023-01-12T10:37:11.918Z,0.00
2023-01-12T10:38:14.900Z,0.33
2023-01-12T10:39:17.592Z,0.67
2023-01-12T10:40:20.352Z,0.33
2023-01-12T10:41:23.246Z,0.00
2023-01-12T10:42:26.062Z,0.00
2023-01-12T10:43:28.625Z,0.00
2023-01-12T10:44:31.500Z,0.00
2023-01-12T10:45:34.121Z,0.00
2023-01-12T10:46:36.751Z,0.00
2023-01-12T10:47:39.663Z,0.00
2023-01-12T10:48:42.491Z,0.00
2023-01-12T10:49:45.317Z,0.00
2023-01-12T10:50:48.374Z,0.00
2023-01-12T10:51:54.408Z,0.00
2023-01-12T10:52:57.401Z,0.00
2023-01-12T10:54:00.282Z,0.00
2023-01-12T10:55:03.176Z,0.00
2023-01-12T10:56:05.954Z,0.00
2023-01-12T10:57:08.931Z,0.00
2023-01-12T10:58:11.582Z,0.00
2023-01-12T10:59:14.235Z,0.00
2023-01-12T11:00:16.970Z,0.00
2023-01-12T11:01:19.944Z,0.00
2023-01-12T11:02:23.042Z,0.14
2023-01-12T11:03:25.955Z,0.29
2023-01-12T11:04:28.795Z,0.00
2023-01-12T11:05:31.456Z,0.43
2023-01-12T11:06:34.154Z,0.00
2023-01-12T11:07:36.783Z,0.00
2023-01-12T11:08:39.397Z,0.33
2023-01-12T11:09:42.138Z,0.00
2023-01-12T11:10:44.793Z,0.00
2023-01-12T11:11:47.381Z,0.00
2023-01-12T11:12:50.083Z,0.00
2023-01-12T11:13:52.866Z,0.00
2023-01-12T11:14:55.645Z,0.29
2023-01-12T11:15:58.199Z,0.00
2023-01-12T11:17:00.866Z,0.00
2023-01-12T11:18:03.690Z,1.00
2023-01-12T11:19:06.267Z,0.00
2023-01-12T11:20:08.936Z,0.00
2023-01-12T11:21:11.863Z,0.00
2023-01-12T11:22:14.571Z,0.00
2023-01-12T11:23:17.163Z,0.00
2023-01-12T11:24:19.908Z,0.00
2023-01-12T11:25:22.621Z,0.00
2023-01-12T11:26:25.599Z,0.00
2023-01-12T11:27:28.521Z,0.00
2023-01-12T11:28:31.648Z,0.00
2023-01-12T11:29:34.374Z,0.43
2023-01-12T11:30:37.138Z,0.83
2023-01-12T11:31:40.068Z,0.00
2023-01-12T11:32:42.895Z,0.00
2023-01-12T11:33:46.148Z,0.00
2023-01-12T11:34:49.287Z,0.29
2023-01-12T11:35:52.270Z,0.57
2023-01-12T11:36:55.151Z,0.00
2023-01-12T11:37:58.368Z,0.00
2023-01-12T11:39:01.415Z,0.00
2023-01-12T11:40:04.388Z,0.00
2023-01-12T11:41:07.262Z,0.00
2023-01-12T11:42:10.088Z,0.00
2023-01-12T11:43:12.965Z,0.00
2023-01-12T11:44:16.106Z,0.00
2023-01-12T11:45:18.980Z,0.00
2023-01-12T11:46:21.990Z,0.00
2023-01-12T11:47:24.991Z,0.00
2023-01-12T11:48:27.881Z,0.00
2023-01-12T11:49:30.974Z,0.00
2023-01-12T11:50:34.099Z,0.00
2023-01-12T11:51:36.777Z,0.00
2023-01-12T11:52:39.763Z,0.00
2023-01-12T11:53:42.606Z,0.00
2023-01-12T11:54:45.480Z,0.00
2023-01-12T11:55:48.184Z,0.00
2023-01-12T11:56:50.986Z,0.00
2023-01-12T11:57:54.039Z,0.00
2023-01-12T11:58:58.034Z,0.00
2023-01-12T12:00:01.049Z,0.00
2023-01-12T12:01:04.000Z,0.00
2023-01-12T12:02:08.053Z,0.00
2023-01-12T12:03:10.925Z,0.00
2023-01-12T12:04:13.626Z,0.00
2023-01-12T12:05:18.278Z,0.00
2023-01-12T12:06:21.116Z,0.00
2023-01-12T12:07:23.767Z,0.17
2023-01-12T12:08:26.318Z,0.00
2023-01-12T12:09:28.964Z,0.00
2023-01-12T12:10:32.081Z,0.00
2023-01-12T12:11:35.130Z,0.00
2023-01-12T12:12:37.948Z,0.00
2023-01-12T12:13:40.825Z,0.33
2023-01-12T12:14:43.782Z,0.00
2023-01-12T12:15:46.678Z,0.00
2023-01-12T12:16:49.845Z,0.00
2023-01-12T12:17:52.725Z,0.00
2023-01-12T12:18:55.710Z,0.00
2023-01-12T12:19:58.623Z,0.00
2023-01-12T12:21:01.520Z,0.00
2023-01-12T12:22:04.187Z,0.00
2023-01-12T12:23:07.013Z,0.33
2023-01-12T12:24:09.760Z,0.67
2023-01-12T12:25:12.654Z,0.33
2023-01-12T12:26:15.794Z,0.00
2023-01-12T12:27:18.734Z,0.00
2023-01-12T12:28:21.676Z,0.00
2023-01-12T12:29:24.484Z,0.00
2023-01-12T12:30:27.437Z,0.00
2023-01-12T12:31:30.546Z,0.00
2023-01-12T12:32:33.433Z,0.00
2023-01-12T12:33:36.304Z,0.00
2023-01-12T12:34:38.925Z,0.00
2023-01-12T12:35:41.695Z,0.00
2023-01-12T12:36:44.665Z,0.00
2023-01-12T12:37:47.529Z,0.00
2023-01-12T12:38:50.384Z,0.00
2023-01-12T12:39:53.229Z,0.00
2023-01-12T12:40:56.140Z,0.00
2023-01-12T12:41:59.085Z,0.00
2023-01-12T12:43:02.065Z,0.00
2023-01-12T12:44:04.924Z,0.00
2023-01-12T12:45:07.869Z,0.00
2023-01-12T12:46:10.603Z,0.00
2023-01-12T12:47:13.511Z,0.00
2023-01-12T12:48:16.246Z,0.00
2023-01-12T12:49:18.981Z,0.00
2023-01-12T12:50:21.661Z,0.00
2023-01-12T12:51:24.223Z,0.00
2023-01-12T12:52:26.906Z,0.00
2023-01-12T12:53:29.616Z,0.00
2023-01-12T12:54:32.713Z,0.00
2023-01-12T12:55:35.656Z,0.00
2023-01-12T12:56:38.573Z,0.00
2023-01-12T12:57:41.333Z,0.00
2023-01-12T12:58:44.268Z,0.00
2023-01-12T12:59:46.860Z,0.00
2023-01-12T13:00:49.463Z,0.00
2023-01-12T13:01:52.309Z,0.00
2023-01-12T13:02:55.130Z,0.00
2023-01-12T13:03:58.025Z,0.00
2023-01-12T13:05:02.004Z,0.00
2023-01-12T13:06:05.104Z,0.00
2023-01-12T13:07:07.945Z,0.00
2023-01-12T13:08:10.965Z,0.00
2023-01-12T13:09:13.645Z,0.00
2023-01-12T13:10:16.595Z,0.00
2023-01-12T13:11:19.465Z,0.00
2023-01-12T13:12:22.207Z,0.00
2023-01-12T13:13:25.390Z,0.00
2023-01-12T13:14:28.287Z,0.00
2023-01-12T13:15:31.175Z,0.00
2023-01-12T13:16:34.041Z,0.00
2023-01-12T13:17:36.861Z,0.00
2023-01-12T13:18:39.556Z,0.00
2023-01-12T13:19:42.273Z,0.00
2023-01-12T13:20:44.820Z,0.33
2023-01-12T13:21:47.490Z,0.00
2023-01-12T13:22:50.093Z,0.00
2023-01-12T13:23:52.859Z,0.00
2023-01-12T13:24:55.464Z,0.14
2023-01-12T13:25:58.115Z,0.00
2023-01-12T13:27:00.767Z,0.00
2023-01-12T13:28:03.483Z,0.00
2023-01-12T13:29:06.449Z,0.00
2023-01-12T13:30:09.500Z,0.00
2023-01-12T13:31:12.156Z,0.00
2023-01-12T13:32:14.967Z,0.00
2023-01-12T13:33:17.885Z,0.00
2023-01-12T13:34:20.781Z,0.00
2023-01-12T13:35:23.653Z,0.00
2023-01-12T13:36:26.655Z,0.00
2023-01-12T13:37:29.567Z,0.00
2023-01-12T13:38:32.668Z,0.00
2023-01-12T13:39:35.819Z,0.00
2023-01-12T13:40:38.518Z,0.00
2023-01-12T13:41:41.373Z,0.00
2023-01-12T13:42:43.958Z,0.00
2023-01-12T13:43:46.893Z,0.00
2023-01-12T13:44:50.007Z,0.00
2023-01-12T13:45:52.881Z,0.00
2023-01-12T13:46:55.563Z,0.00
2023-01-12T13:47:58.167Z,0.00
2023-01-12T13:49:00.865Z,0.00
2023-01-12T13:50:03.791Z,0.00
2023-01-12T13:51:06.705Z,0.00
2023-01-12T13:52:09.682Z,0.00
2023-01-12T13:53:13.584Z,0.00
2023-01-12T13:54:16.496Z,0.00
2023-01-12T13:55:19.662Z,0.00
2023-01-12T13:56:22.495Z,0.00
2023-01-12T13:57:25.333Z,0.00
2023-01-12T13:58:28.661Z,0.00
2023-01-12T13:59:31.585Z,0.00
2023-01-12T14:00:34.672Z,0.00
2023-01-12T14:01:37.515Z,0.00
2023-01-12T14:02:40.387Z,0.00
2023-01-12T14:03:43.354Z,0.00
2023-01-12T14:04:46.209Z,0.00
2023-01-12T14:05:49.286Z,0.00
2023-01-12T14:06:52.197Z,0.00
2023-01-12T14:07:54.964Z,0.00
2023-01-12T14:08:57.653Z,0.00
2023-01-12T14:10:00.990Z,0.00
2023-01-12T14:11:03.754Z,0.00
2023-01-12T14:12:07.771Z,0.00
2023-01-12T14:13:10.647Z,0.00
2023-01-12T14:14:13.429Z,0.00
2023-01-12T14:15:16.276Z,0.00
2023-01-12T14:16:19.760Z,0.00
2023-01-12T14:17:22.698Z,0.00
2023-01-12T14:18:25.632Z,0.00
2023-01-12T14:19:28.300Z,0.00
2023-01-12T14:20:30.989Z,0.00
2023-01-12T14:21:33.835Z,0.00